createdAt,value
2023-03-12T00:00:06.313Z,73.52
2023-03-12T00:01:06.188Z,73.52
2023-03-12T00:02:06.224Z,73.42
2023-03-12T00:03:06.160Z,73.63
2023-03-12T00:04:06.216Z,73.94
2023-03-12T00:05:06.182Z,74.15
2023-03-12T00:06:13.638Z,74.25
2023-03-12T00:07:06.131Z,74.35
2023-03-12T00:08:06.110Z,74.46
2023-03-12T00:09:06.117Z,74.67
2023-03-12T00:10:06.096Z,74.80
2023-03-12T00:11:06.121Z,74.88
2023-03-12T00:12:06.106Z,74.98
2023-03-12T00:13:06.019Z,75.01
2023-03-12T00:14:16.199Z,74.98
2023-03-12T00:15:13.606Z,74.98
2023-03-12T00:16:06.033Z,74.88
2023-03-12T00:17:06.002Z,75.09
2023-03-12T00:18:06.097Z,74.98
2023-03-12T00:19:05.971Z,74.91
2023-03-12T00:20:05.974Z,74.70
2023-03-12T00:21:05.979Z,74.49
2023-03-12T00:22:05.973Z,74.39
2023-03-12T00:23:05.959Z,74.39
2023-03-12T00:24:05.905Z,74.29
2023-03-12T00:25:05.887Z,74.39
2023-03-12T00:26:05.911Z,74.39
2023-03-12T00:27:05.881Z,74.35
2023-03-12T00:28:05.858Z,74.29
2023-03-12T00:29:05.828Z,74.39
2023-03-12T00:30:05.872Z,74.49
2023-03-12T00:31:05.830Z,74.39
2023-03-12T00:32:05.866Z,74.39
2023-03-12T00:33:05.871Z,74.49
2023-03-12T00:34:05.771Z,74.60
2023-03-12T00:35:05.758Z,74.60
2023-03-12T00:36:05.829Z,74.60
2023-03-12T00:37:05.706Z,74.70
2023-03-12T00:38:05.727Z,74.80
2023-03-12T00:39:05.742Z,74.91
2023-03-12T00:40:05.678Z,74.80
2023-03-12T00:41:05.684Z,74.80
2023-03-12T00:42:05.731Z,74.74
2023-03-12T00:43:05.648Z,74.80
2023-03-12T00:44:05.653Z,74.70
2023-03-12T00:45:05.726Z,74.70
2023-03-12T00:46:05.595Z,74.80
2023-03-12T00:47:05.600Z,74.80
2023-03-12T00:48:05.606Z,74.91
2023-03-12T00:49:05.552Z,75.01
2023-03-12T00:50:05.572Z,75.12
2023-03-12T00:51:05.581Z,75.26
2023-03-12T00:52:05.522Z,75.46
2023-03-12T00:53:05.509Z,75.57
2023-03-12T00:54:05.545Z,75.67
2023-03-12T00:55:05.614Z,75.78
2023-03-12T00:56:05.477Z,75.78
2023-03-12T00:57:05.491Z,75.78
2023-03-12T00:58:05.452Z,75.88
2023-03-12T00:59:05.423Z,75.88
2023-03-12T01:00:05.466Z,75.88
2023-03-12T01:01:05.492Z,75.78
2023-03-12T01:02:05.420Z,75.88
2023-03-12T01:03:05.447Z,75.78
2023-03-12T01:04:05.379Z,75.67
2023-03-12T01:05:05.340Z,75.78
2023-03-12T01:06:05.414Z,75.54
2023-03-12T01:07:05.336Z,75.43
2023-03-12T01:08:05.426Z,75.46
2023-03-12T01:09:05.355Z,75.36
2023-03-12T01:10:05.288Z,75.46
2023-03-12T01:11:05.290Z,75.46
2023-03-12T01:12:05.323Z,75.36
2023-03-12T01:13:05.264Z,75.46
2023-03-12T01:14:05.259Z,75.36
2023-03-12T01:15:05.368Z,75.26
2023-03-12T01:16:05.304Z,75.26
2023-03-12T01:17:05.352Z,75.26
2023-03-12T01:18:05.301Z,75.26
2023-03-12T01:19:05.171Z,75.05
2023-03-12T01:20:05.170Z,75.05
2023-03-12T01:21:05.216Z,75.05
2023-03-12T01:22:05.169Z,75.15
2023-03-12T01:23:05.143Z,75.46
2023-03-12T01:24:05.175Z,75.67
2023-03-12T01:25:05.125Z,76.20
2023-03-12T01:26:05.081Z,76.40
2023-03-12T01:27:05.122Z,76.43
2023-03-12T01:28:05.064Z,76.43
2023-03-12T01:29:05.063Z,76.43
2023-03-12T01:30:05.125Z,76.33
2023-03-12T01:31:05.039Z,76.33
2023-03-12T01:32:05.033Z,76.33
2023-03-12T01:33:05.045Z,76.30
2023-03-12T01:34:04.989Z,76.20
2023-03-12T01:35:05.038Z,76.20
2023-03-12T01:36:05.205Z,76.30
2023-03-12T01:37:04.999Z,76.40
2023-03-12T01:38:04.958Z,76.51
2023-03-12T01:39:04.971Z,76.51
2023-03-12T01:40:04.909Z,76.47
2023-03-12T01:41:04.887Z,76.20
2023-03-12T01:42:04.950Z,75.88
2023-03-12T01:43:04.857Z,75.36
2023-03-12T01:44:04.909Z,75.36
2023-03-12T01:45:04.889Z,75.36
2023-03-12T01:46:04.932Z,75.15
2023-03-12T01:47:04.809Z,75.26
2023-03-12T01:48:04.824Z,75.26
2023-03-12T01:49:04.786Z,75.26
2023-03-12T01:50:04.775Z,75.32
2023-03-12T01:51:04.843Z,75.22
2023-03-12T01:52:04.768Z,75.32
2023-03-12T01:53:04.751Z,75.43
2023-03-12T01:54:04.792Z,75.43
2023-03-12T01:55:04.698Z,75.32
2023-03-12T01:56:04.683Z,75.22
2023-03-12T01:57:04.694Z,75.22
2023-03-12T01:58:04.650Z,75.22
2023-03-12T01:59:04.687Z,75.19
2023-03-12T02:00:04.676Z,75.09
2023-03-12T02:01:04.708Z,74.98
2023-03-12T02:02:04.623Z,75.01
2023-03-12T02:03:04.645Z,75.12
2023-03-12T02:04:04.636Z,75.22
2023-03-12T02:05:04.594Z,75.19
2023-03-12T02:06:04.703Z,75.22
2023-03-12T02:07:04.555Z,75.32
2023-03-12T02:08:04.516Z,75.32
2023-03-12T02:09:04.562Z,75.32
2023-03-12T02:10:04.494Z,75.54
2023-03-12T02:11:04.559Z,75.64
2023-03-12T02:12:04.525Z,75.71
2023-03-12T02:13:04.476Z,75.71
2023-03-12T02:14:04.448Z,75.60
2023-03-12T02:15:04.524Z,75.71
2023-03-12T02:16:04.487Z,75.81
2023-03-12T02:17:04.493Z,75.81
2023-03-12T02:18:04.487Z,75.81
2023-03-12T02:19:04.443Z,76.12
2023-03-12T02:20:04.424Z,76.33
2023-03-12T02:21:04.455Z,76.43
2023-03-12T02:22:04.347Z,76.57
2023-03-12T02:23:04.446Z,76.89
2023-03-12T02:24:04.424Z,76.99
2023-03-12T02:25:04.305Z,76.85
2023-03-12T02:26:04.297Z,76.75
2023-03-12T02:27:04.364Z,76.75
2023-03-12T02:28:04.276Z,76.89
2023-03-12T02:29:04.318Z,76.78
2023-03-12T02:30:04.299Z,76.75
2023-03-12T02:31:04.269Z,76.54
2023-03-12T02:32:04.380Z,76.37
2023-03-12T02:33:04.253Z,76.37
2023-03-12T02:34:04.208Z,76.37
2023-03-12T02:35:04.165Z,76.47
2023-03-12T02:36:04.258Z,76.47
2023-03-12T02:37:04.185Z,76.47
2023-03-12T02:38:04.167Z,76.47
2023-03-12T02:39:04.195Z,77.03
2023-03-12T02:40:04.105Z,77.34
2023-03-12T02:41:04.092Z,77.44
2023-03-12T02:42:04.178Z,77.34
2023-03-12T02:43:04.075Z,77.37
2023-03-12T02:44:04.100Z,77.34
2023-03-12T02:45:04.115Z,77.23
2023-03-12T02:46:04.086Z,77.03
2023-03-12T02:47:04.048Z,76.72
2023-03-12T02:48:04.101Z,76.51
2023-03-12T02:49:04.028Z,76.51
2023-03-12T02:50:03.990Z,76.40
2023-03-12T02:51:04.033Z,76.23
2023-03-12T02:52:04.010Z,76.43
2023-03-12T02:53:03.952Z,76.65
2023-03-12T02:54:03.993Z,76.65
2023-03-12T02:55:03.925Z,76.65
2023-03-12T02:56:03.920Z,76.54
2023-03-12T02:57:03.982Z,76.65
2023-03-12T02:58:03.884Z,76.75
2023-03-12T02:59:04.543Z,76.51
2023-03-12T03:00:03.900Z,76.40
2023-03-12T03:01:03.874Z,76.30
2023-03-12T03:02:03.848Z,76.40
2023-03-12T03:03:03.917Z,76.40
2023-03-12T03:04:03.926Z,76.30
2023-03-12T03:05:03.803Z,76.30
2023-03-12T03:06:03.842Z,76.40
2023-03-12T03:07:03.820Z,76.51
2023-03-12T03:08:03.763Z,76.72
2023-03-12T03:09:03.802Z,76.92
2023-03-12T03:10:03.771Z,77.03
2023-03-12T03:11:03.871Z,77.03
2023-03-12T03:12:03.867Z,77.34
2023-03-12T03:13:03.681Z,77.34
2023-03-12T03:14:03.685Z,77.34
2023-03-12T03:15:04.118Z,77.34
2023-03-12T03:16:03.667Z,77.34
2023-03-12T03:17:03.676Z,77.23
2023-03-12T03:18:03.671Z,77.13
2023-03-12T03:19:03.604Z,76.96
2023-03-12T03:20:03.596Z,77.06
2023-03-12T03:21:03.630Z,77.06
2023-03-12T03:22:03.572Z,77.06
2023-03-12T03:23:03.619Z,77.17
2023-03-12T03:24:03.612Z,77.03
2023-03-12T03:25:03.579Z,77.06
2023-03-12T03:26:03.541Z,77.13
2023-03-12T03:27:03.570Z,77.23
2023-03-12T03:28:03.491Z,77.34
2023-03-12T03:29:03.532Z,77.34
2023-03-12T03:30:03.549Z,77.34
2023-03-12T03:31:03.567Z,77.34
2023-03-12T03:32:03.470Z,77.34
2023-03-12T03:33:03.430Z,77.34
2023-03-12T03:34:03.440Z,77.34
2023-03-12T03:35:03.428Z,77.34
2023-03-12T03:36:03.403Z,77.44
2023-03-12T03:37:03.377Z,77.44
2023-03-12T03:38:03.371Z,77.55
2023-03-12T03:39:03.387Z,77.65
2023-03-12T03:40:03.353Z,77.75
2023-03-12T03:41:03.370Z,77.75
2023-03-12T03:42:03.334Z,77.86
2023-03-12T03:43:03.375Z,77.96
2023-03-12T03:44:03.378Z,78.17
2023-03-12T03:45:03.291Z,78.28
2023-03-12T03:46:03.615Z,78.38
2023-03-12T03:47:03.286Z,78.28
2023-03-12T03:48:03.267Z,78.49
2023-03-12T03:49:03.384Z,78.49
2023-03-12T03:50:03.266Z,78.45
2023-03-12T03:51:03.263Z,78.45
2023-03-12T03:52:03.194Z,78.55
2023-03-12T03:53:03.256Z,78.34
2023-03-12T03:54:03.165Z,78.24
2023-03-12T03:55:03.165Z,78.03
2023-03-12T03:56:03.164Z,77.83
2023-03-12T03:57:03.143Z,78.03
2023-03-12T03:58:03.116Z,77.93
2023-03-12T03:59:03.136Z,78.03
2023-03-12T04:00:03.870Z,78.24
2023-03-12T04:01:03.091Z,77.93
2023-03-12T04:02:03.096Z,78.03
2023-03-12T04:03:03.191Z,78.14
2023-03-12T04:04:03.018Z,78.14
2023-03-12T04:05:03.121Z,78.14
2023-03-12T04:06:03.105Z,77.93
2023-03-12T04:07:03.050Z,77.40
2023-03-12T04:08:03.131Z,77.20
2023-03-12T04:09:03.021Z,77.44
2023-03-12T04:10:02.971Z,77.75
2023-03-12T04:11:03.033Z,77.75
2023-03-12T04:12:03.011Z,77.75
2023-03-12T04:13:03.014Z,77.65
2023-03-12T04:14:03.148Z,77.34
2023-03-12T04:15:02.903Z,77.23
2023-03-12T04:16:02.951Z,77.34
2023-03-12T04:17:02.992Z,76.78
2023-03-12T04:18:02.906Z,76.37
2023-03-12T04:19:02.931Z,76.16
2023-03-12T04:20:43.627Z,75.95
2023-03-12T04:21:03.853Z,76.20
2023-03-12T04:22:02.828Z,76.16
2023-03-12T04:23:02.820Z,75.74
2023-03-12T04:24:02.806Z,75.01
2023-03-12T04:25:02.832Z,74.49
2023-03-12T04:26:02.740Z,74.08
2023-03-12T04:27:02.775Z,73.77
2023-03-12T04:28:02.708Z,73.77
2023-03-12T04:29:02.704Z,73.66
2023-03-12T04:30:02.732Z,73.66
2023-03-12T04:31:02.752Z,73.83
2023-03-12T04:32:02.696Z,74.08
2023-03-12T04:33:02.708Z,74.35
2023-03-12T04:34:02.629Z,74.46
2023-03-12T04:35:02.596Z,74.46
2023-03-12T04:36:02.745Z,74.46
2023-03-12T04:37:02.636Z,74.57
2023-03-12T04:38:02.566Z,74.46
2023-03-12T04:39:02.628Z,74.46
2023-03-12T04:40:02.557Z,74.57
2023-03-12T04:41:02.561Z,74.67
2023-03-12T04:42:02.528Z,74.67
2023-03-12T04:43:02.610Z,74.57
2023-03-12T04:44:02.478Z,74.77
2023-03-12T04:45:02.498Z,74.57
2023-03-12T04:46:02.496Z,74.15
2023-03-12T04:47:02.551Z,73.87
2023-03-12T04:48:02.482Z,73.94
2023-03-12T04:49:02.471Z,73.73
2023-03-12T04:50:02.476Z,73.52
2023-03-12T04:51:02.419Z,73.52
2023-03-12T04:52:02.409Z,73.39
2023-03-12T04:53:02.534Z,73.07
2023-03-12T04:54:02.410Z,72.86
2023-03-12T04:55:02.420Z,72.76
2023-03-12T04:56:02.401Z,72.55
2023-03-12T04:57:02.351Z,72.55
2023-03-12T04:58:02.389Z,72.34
2023-03-12T04:59:02.371Z,72.24
2023-03-12T05:00:02.288Z,72.24
2023-03-12T05:01:02.290Z,72.24
2023-03-12T05:02:02.287Z,72.24
2023-03-12T05:03:02.435Z,72.34
2023-03-12T05:04:02.273Z,72.55
2023-03-12T05:05:02.211Z,72.76
2023-03-12T05:06:02.239Z,72.59
2023-03-12T05:07:02.266Z,72.80
2023-03-12T05:08:02.215Z,72.66
2023-03-12T05:09:02.170Z,72.55
2023-03-12T05:10:02.249Z,72.14
2023-03-12T05:11:02.178Z,72.14
2023-03-12T05:12:02.152Z,71.93
2023-03-12T05:13:02.183Z,71.93
2023-03-12T05:14:02.149Z,71.83
2023-03-12T05:15:02.083Z,72.03
2023-03-12T05:16:02.186Z,72.03
2023-03-12T05:17:02.111Z,71.80
2023-03-12T05:18:02.055Z,71.90
2023-03-12T05:19:02.114Z,71.83
2023-03-12T05:20:02.033Z,71.83
2023-03-12T05:21:02.011Z,71.72
2023-03-12T05:22:02.066Z,71.51
2023-03-12T05:23:02.005Z,71.65
2023-03-12T05:24:01.976Z,71.62
2023-03-12T05:25:02.016Z,71.72
2023-03-12T05:26:01.992Z,71.51
2023-03-12T05:27:02.040Z,71.31
2023-03-12T05:28:01.965Z,71.41
2023-03-12T05:29:02.230Z,71.20
2023-03-12T05:30:01.894Z,71.00
2023-03-12T05:31:02.005Z,70.89
2023-03-12T05:32:01.916Z,70.89
2023-03-12T05:33:01.968Z,70.68
2023-03-12T05:34:01.885Z,70.68
2023-03-12T05:35:01.819Z,70.54
2023-03-12T05:36:01.816Z,70.34
2023-03-12T05:37:01.798Z,69.92
2023-03-12T05:38:01.855Z,70.03
2023-03-12T05:39:01.825Z,70.06
2023-03-12T05:40:01.754Z,70.48
2023-03-12T05:41:01.740Z,70.48
2023-03-12T05:42:01.823Z,70.72
2023-03-12T05:43:01.743Z,70.92
2023-03-12T05:44:01.778Z,71.17
2023-03-12T05:45:01.707Z,71.48
2023-03-12T05:46:01.768Z,71.69
2023-03-12T05:47:01.695Z,71.69
2023-03-12T05:48:01.718Z,71.69
2023-03-12T05:49:01.676Z,71.75
2023-03-12T05:50:01.684Z,71.97
2023-03-12T05:51:01.662Z,71.97
2023-03-12T05:52:01.612Z,72.17
2023-03-12T05:53:01.612Z,72.28
2023-03-12T05:54:01.637Z,72.38
2023-03-12T05:55:01.614Z,72.69
2023-03-12T05:56:01.549Z,72.80
2023-03-12T05:57:01.616Z,73.00
2023-03-12T05:58:01.540Z,73.21
2023-03-12T05:59:01.490Z,73.49
2023-03-12T06:00:01.614Z,73.49
2023-03-12T06:01:01.469Z,73.14
2023-03-12T06:02:01.528Z,72.66
2023-03-12T06:03:01.532Z,72.55
2023-03-12T06:04:01.450Z,72.55
2023-03-12T06:05:01.461Z,72.90
2023-03-12T06:06:01.468Z,72.90
2023-03-12T06:07:01.537Z,73.00
2023-03-12T06:08:01.423Z,73.21
2023-03-12T06:09:01.353Z,73.21
2023-03-12T06:10:01.364Z,73.35
2023-03-12T06:11:01.364Z,73.46
2023-03-12T06:12:01.627Z,73.66
2023-03-12T06:13:01.337Z,73.46
2023-03-12T06:14:01.489Z,73.46
2023-03-12T06:15:01.292Z,73.42
2023-03-12T06:16:01.353Z,73.21
2023-03-12T06:17:01.355Z,72.86
2023-03-12T06:18:01.279Z,72.86
2023-03-12T06:19:01.291Z,72.55
2023-03-12T06:20:01.274Z,72.14
2023-03-12T06:21:01.222Z,71.93
2023-03-12T06:22:01.220Z,71.72
2023-03-12T06:23:01.248Z,71.62
2023-03-12T06:24:01.222Z,71.51
2023-03-12T06:25:01.143Z,71.51
2023-03-12T06:26:01.129Z,71.41
2023-03-12T06:27:01.218Z,71.51
2023-03-12T06:28:01.139Z,71.69
2023-03-12T06:29:01.175Z,71.31
2023-03-12T06:30:01.333Z,71.10
2023-03-12T06:31:01.160Z,70.86
2023-03-12T06:32:01.227Z,70.68
2023-03-12T06:33:01.090Z,70.65
2023-03-12T06:34:01.147Z,70.54
2023-03-12T06:35:27.308Z,70.34
2023-03-12T06:36:30.184Z,70.44
2023-03-12T06:37:02.106Z,70.65
2023-03-12T06:38:01.037Z,70.31
2023-03-12T06:39:06.076Z,70.20
2023-03-12T06:40:01.085Z,70.00
2023-03-12T06:41:00.974Z,70.31
2023-03-12T06:42:01.004Z,70.31
2023-03-12T06:43:01.081Z,70.23
2023-03-12T06:44:00.966Z,70.54
2023-03-12T06:45:00.929Z,70.72
2023-03-12T06:46:01.011Z,70.62
2023-03-12T06:48:10.340Z,70.28
2023-03-12T06:49:10.298Z,70.17
2023-03-12T06:50:10.424Z,69.83
2023-03-12T06:51:10.240Z,69.69
2023-03-12T06:52:10.369Z,69.27
2023-03-12T06:53:10.272Z,69.07
2023-03-12T06:54:10.246Z,68.96
2023-03-12T06:55:10.405Z,68.65
2023-03-12T06:56:10.260Z,69.10
2023-03-12T06:57:10.172Z,69.55
2023-03-12T06:58:10.236Z,70.20
2023-03-12T06:59:10.187Z,70.62
2023-03-12T07:00:10.134Z,70.93
2023-03-12T07:01:10.133Z,70.93
2023-03-12T07:02:10.176Z,70.83
2023-03-12T07:03:10.097Z,70.48
2023-03-12T07:04:10.179Z,70.41
2023-03-12T07:05:10.200Z,70.17
2023-03-12T07:06:10.035Z,70.14
2023-03-12T07:07:10.085Z,70.04
2023-03-12T07:08:10.078Z,70.45
2023-03-12T07:09:10.000Z,70.14
2023-03-12T07:10:10.030Z,70.04
2023-03-12T07:11:10.011Z,69.73
2023-03-12T07:12:09.991Z,69.93
2023-03-12T07:13:09.973Z,69.93
2023-03-12T07:14:10.000Z,70.35
2023-03-12T07:15:10.008Z,70.45
2023-03-12T07:16:10.135Z,70.35
2023-03-12T07:17:09.900Z,70.25
2023-03-12T07:18:09.931Z,70.66
2023-03-12T07:19:09.919Z,70.73
2023-03-12T07:20:09.882Z,70.73
2023-03-12T07:21:09.883Z,71.04
2023-03-12T07:22:09.850Z,71.04
2023-03-12T07:23:09.835Z,70.83
2023-03-12T07:24:09.823Z,70.62
2023-03-12T07:25:09.794Z,70.52
2023-03-12T07:26:09.821Z,70.62
2023-03-12T07:27:09.851Z,70.52
2023-03-12T07:28:09.792Z,70.73
2023-03-12T07:29:09.760Z,70.90
2023-03-12T07:30:09.738Z,70.80
2023-03-12T07:31:09.774Z,70.18
2023-03-12T07:32:09.804Z,70.18
2023-03-12T07:33:09.853Z,70.49
2023-03-12T07:34:09.883Z,70.70
2023-03-12T07:35:09.743Z,70.70
2023-03-12T07:36:09.805Z,70.76
2023-03-12T07:37:09.643Z,70.56
2023-03-12T07:38:09.773Z,70.67
2023-03-12T07:39:09.664Z,70.67
2023-03-12T07:40:09.696Z,70.67
2023-03-12T07:41:09.734Z,71.18
2023-03-12T07:42:09.618Z,71.32
2023-03-12T07:43:09.551Z,71.11
2023-03-12T07:44:09.739Z,70.90
2023-03-12T07:45:09.608Z,70.49
2023-03-12T07:46:09.595Z,70.39
2023-03-12T07:47:22.835Z,70.04
2023-03-12T07:48:10.667Z,69.73
2023-03-12T07:49:09.486Z,70.04
2023-03-12T07:50:09.561Z,70.21
2023-03-12T07:51:09.512Z,70.01
2023-03-12T07:52:09.514Z,69.77
2023-03-12T07:53:09.460Z,69.67
2023-03-12T07:54:09.425Z,69.53
2023-03-12T07:55:09.573Z,68.91
2023-03-12T07:56:09.465Z,68.94
2023-03-12T07:57:09.692Z,69.15
2023-03-12T07:58:09.501Z,69.43
2023-03-12T07:59:09.529Z,69.43
2023-03-12T08:00:09.386Z,69.74
2023-03-12T08:01:09.382Z,69.53
2023-03-12T08:02:09.399Z,70.01
2023-03-12T08:03:09.480Z,70.22
2023-03-12T08:04:09.402Z,69.92
2023-03-12T08:05:09.320Z,69.29
2023-03-12T08:06:09.292Z,69.16
2023-03-12T08:07:09.516Z,69.26
2023-03-12T08:08:09.346Z,69.16
2023-03-12T08:09:09.210Z,68.85
2023-03-12T08:10:09.279Z,69.06
2023-03-12T08:11:09.241Z,69.16
2023-03-12T08:12:09.203Z,69.16
2023-03-12T08:13:09.211Z,68.85
2023-03-12T08:14:09.197Z,69.06
2023-03-12T08:15:09.176Z,69.98
2023-03-12T08:16:09.654Z,70.53
2023-03-12T08:17:09.148Z,70.84
2023-03-12T08:18:09.181Z,70.77
2023-03-12T08:19:09.127Z,71.19
2023-03-12T08:20:09.123Z,71.29
2023-03-12T08:21:09.047Z,71.15
2023-03-12T08:22:09.040Z,70.95
2023-03-12T08:23:09.093Z,70.84
2023-03-12T08:24:09.036Z,70.74
2023-03-12T08:25:09.073Z,70.71
2023-03-12T08:26:09.089Z,70.50
2023-03-12T08:27:09.054Z,70.61
2023-03-12T08:28:08.985Z,70.47
2023-03-12T08:29:09.010Z,70.57
2023-03-12T08:30:08.983Z,70.26
2023-03-12T08:31:08.907Z,70.09
2023-03-12T08:32:09.075Z,70.06
2023-03-12T08:33:09.061Z,70.06
2023-03-12T08:34:08.910Z,69.95
2023-03-12T08:35:09.070Z,69.95
2023-03-12T08:36:08.866Z,69.95
2023-03-12T08:37:08.890Z,70.06
2023-03-12T08:38:08.882Z,70.23
2023-03-12T08:39:08.885Z,70.12
2023-03-12T08:40:08.807Z,69.92
2023-03-12T08:41:08.848Z,69.92
2023-03-12T08:42:08.816Z,70.03
2023-03-12T08:43:08.757Z,69.89
2023-03-12T08:44:08.765Z,69.82
2023-03-12T08:45:08.794Z,69.61
2023-03-12T08:46:10.994Z,69.92
2023-03-12T08:47:08.744Z,70.54
2023-03-12T08:48:08.845Z,70.85
2023-03-12T08:49:08.699Z,70.43
2023-03-12T08:50:08.707Z,69.99
2023-03-12T08:51:08.728Z,69.78
2023-03-12T08:52:08.658Z,69.99
2023-03-12T08:53:08.639Z,70.09
2023-03-12T08:54:08.678Z,69.89
2023-03-12T08:55:08.624Z,69.99
2023-03-12T08:56:08.620Z,69.99
2023-03-12T08:57:08.690Z,69.85
2023-03-12T08:58:08.583Z,69.75
2023-03-12T08:59:08.587Z,69.85
2023-03-12T09:00:08.546Z,70.17
2023-03-12T09:01:08.608Z,70.17
2023-03-12T09:02:08.553Z,70.37
2023-03-12T09:03:08.577Z,71.09
2023-03-12T09:04:08.575Z,71.20
2023-03-12T09:05:08.485Z,70.65
2023-03-12T09:06:08.554Z,70.44
2023-03-12T09:07:08.467Z,70.47
2023-03-12T09:08:08.512Z,70.89
2023-03-12T09:09:08.458Z,71.51
2023-03-12T09:10:08.524Z,71.30
2023-03-12T09:11:08.397Z,71.75
2023-03-12T09:12:08.456Z,71.95
2023-03-12T09:13:08.449Z,72.06
2023-03-12T09:14:53.908Z,72.47
2023-03-12T09:15:09.382Z,72.88
2023-03-12T09:16:08.395Z,73.09
2023-03-12T09:17:08.320Z,73.19
2023-03-12T09:18:08.337Z,73.39
2023-03-12T09:19:08.482Z,73.81
2023-03-12T09:20:08.453Z,73.98
2023-03-12T09:21:08.267Z,74.19
2023-03-12T09:22:08.263Z,74.05
2023-03-12T09:23:08.282Z,73.95
2023-03-12T09:24:08.258Z,73.98
2023-03-12T09:25:08.230Z,73.95
2023-03-12T09:26:08.271Z,74.19
2023-03-12T09:27:08.515Z,74.19
2023-03-12T09:28:08.252Z,74.40
2023-03-12T09:29:08.183Z,74.40
2023-03-12T09:30:08.183Z,74.50
2023-03-12T09:31:08.225Z,74.71
2023-03-12T09:32:08.220Z,74.60
2023-03-12T09:33:08.144Z,74.57
2023-03-12T09:34:08.116Z,74.77
2023-03-12T09:35:08.137Z,74.77
2023-03-12T09:36:08.102Z,75.09
2023-03-12T09:37:08.050Z,75.09
2023-03-12T09:38:08.056Z,74.84
2023-03-12T09:39:08.026Z,74.74
2023-03-12T09:40:08.042Z,74.40
2023-03-12T09:41:08.038Z,74.53
2023-03-12T09:42:07.978Z,75.05
2023-03-12T09:43:07.994Z,75.36
2023-03-12T09:44:07.988Z,75.67
2023-03-12T09:45:07.976Z,75.63
2023-03-12T09:46:08.047Z,75.22
2023-03-12T09:47:08.008Z,75.12
2023-03-12T09:48:07.903Z,75.22
2023-03-12T09:49:07.904Z,75.94
2023-03-12T09:50:07.922Z,76.46
2023-03-12T09:51:07.856Z,76.87
2023-03-12T09:52:07.885Z,77.18
2023-03-12T09:53:07.922Z,77.59
2023-03-12T09:54:07.869Z,77.55
2023-03-12T09:55:07.857Z,77.97
2023-03-12T09:56:07.853Z,78.28
2023-03-12T09:57:07.810Z,78.89
2023-03-12T09:58:07.788Z,79.10
2023-03-12T09:59:07.821Z,79.82
2023-03-12T10:00:07.771Z,80.23
2023-03-12T10:01:07.816Z,80.30
2023-03-12T10:02:07.805Z,80.30
2023-03-12T10:03:07.808Z,80.40
2023-03-12T10:04:07.745Z,80.81
2023-03-12T10:05:07.743Z,80.91
2023-03-12T10:06:07.726Z,81.23
2023-03-12T10:07:07.695Z,81.23
2023-03-12T10:08:23.016Z,81.33
2023-03-12T10:09:08.693Z,81.98
2023-03-12T10:10:07.598Z,82.29
2023-03-12T10:11:07.613Z,83.22
2023-03-12T10:12:07.595Z,83.12
2023-03-12T10:13:07.599Z,83.42
2023-03-12T10:14:07.609Z,83.84
2023-03-12T10:15:08.527Z,83.84
2023-03-12T10:16:07.600Z,83.70
2023-03-12T10:17:07.540Z,84.00
2023-03-12T10:18:07.653Z,83.90
2023-03-12T10:19:07.578Z,83.90
2023-03-12T10:20:07.481Z,83.90
2023-03-12T10:21:07.511Z,84.21
2023-03-12T10:22:07.457Z,84.07
2023-03-12T10:23:07.428Z,83.80
2023-03-12T10:24:07.454Z,84.11
2023-03-12T10:25:07.468Z,84.42
2023-03-12T10:26:07.407Z,84.77
2023-03-12T10:27:07.437Z,84.93
2023-03-12T10:28:07.415Z,84.83
2023-03-12T10:29:07.381Z,84.93
2023-03-12T10:30:07.414Z,84.99
2023-03-12T10:31:07.420Z,84.69
2023-03-12T10:32:07.347Z,84.69
2023-03-12T10:33:07.311Z,84.58
2023-03-12T10:34:07.437Z,84.48
2023-03-12T10:35:07.285Z,84.42
2023-03-12T10:36:07.405Z,85.59
2023-03-12T10:37:07.252Z,86.00
2023-03-12T10:38:07.347Z,86.00
2023-03-12T10:39:07.234Z,86.27
2023-03-12T10:40:07.307Z,86.27
2023-03-12T10:41:07.223Z,86.02
2023-03-12T10:42:07.206Z,85.82
2023-03-12T10:43:07.209Z,85.41
2023-03-12T10:44:07.195Z,85.16
2023-03-12T10:45:07.173Z,84.85
2023-03-12T10:46:07.219Z,84.89
2023-03-12T10:47:07.165Z,84.89
2023-03-12T10:48:07.126Z,84.69
2023-03-12T10:49:07.113Z,84.64
2023-03-12T10:50:07.082Z,84.44
2023-03-12T10:51:07.092Z,84.23
2023-03-12T10:52:07.062Z,84.03
2023-03-12T10:53:07.047Z,83.92
2023-03-12T10:54:07.084Z,83.97
2023-03-12T10:55:07.133Z,84.54
2023-03-12T10:56:06.992Z,84.54
2023-03-12T10:57:07.012Z,84.54
2023-03-12T10:58:07.055Z,84.44
2023-03-12T10:59:06.953Z,84.34
2023-03-12T11:00:07.086Z,84.20
2023-03-12T11:01:06.952Z,84.09
2023-03-12T11:02:06.976Z,83.95
2023-03-12T11:03:06.927Z,83.75
2023-03-12T11:04:07.032Z,83.75
2023-03-12T11:05:06.900Z,83.29
2023-03-12T11:06:07.020Z,83.19
2023-03-12T11:07:06.855Z,82.78
2023-03-12T11:08:06.883Z,82.99
2023-03-12T11:09:22.108Z,82.57
2023-03-12T11:10:07.894Z,82.82
2023-03-12T11:11:06.819Z,82.89
2023-03-12T11:12:06.822Z,82.68
2023-03-12T11:13:06.780Z,82.37
2023-03-12T11:14:06.849Z,82.47
2023-03-12T11:15:06.783Z,82.54
2023-03-12T11:16:06.809Z,82.33
2023-03-12T11:17:06.724Z,82.13
2023-03-12T11:18:06.753Z,82.43
2023-03-12T11:19:06.712Z,82.54
2023-03-12T11:20:06.694Z,82.95
2023-03-12T11:21:06.719Z,83.01
2023-03-12T11:22:06.701Z,82.70
2023-03-12T11:23:06.646Z,82.19
2023-03-12T11:24:06.659Z,82.09
2023-03-12T11:25:06.699Z,81.92
2023-03-12T11:26:06.602Z,81.88
2023-03-12T11:27:06.797Z,81.68
2023-03-12T11:28:06.635Z,81.68
2023-03-12T11:29:06.638Z,81.68
2023-03-12T11:30:06.648Z,81.54
2023-03-12T11:31:06.624Z,81.34
2023-03-12T11:32:06.568Z,81.02
2023-03-12T11:33:06.531Z,80.88
2023-03-12T11:34:06.554Z,80.68
2023-03-12T11:35:06.487Z,80.27
2023-03-12T11:36:06.561Z,79.96
2023-03-12T11:37:06.530Z,79.96
2023-03-12T11:38:06.454Z,80.17
2023-03-12T11:39:06.434Z,79.86
2023-03-12T11:40:06.522Z,79.96
2023-03-12T11:41:06.426Z,79.66
2023-03-12T11:42:06.399Z,79.62
2023-03-12T11:43:06.468Z,79.86
2023-03-12T11:44:06.382Z,79.96
2023-03-12T11:45:06.467Z,79.86
2023-03-12T11:46:06.397Z,79.62
2023-03-12T11:47:06.326Z,79.72
2023-03-12T11:48:06.313Z,79.72
2023-03-12T11:49:06.416Z,79.72
2023-03-12T11:50:06.300Z,79.52
2023-03-12T11:51:06.320Z,79.52
2023-03-12T11:52:06.409Z,79.07
2023-03-12T11:53:06.277Z,79.07
2023-03-12T11:54:06.232Z,78.83
2023-03-12T11:55:06.242Z,78.97
2023-03-12T11:56:06.226Z,79.17
2023-03-12T11:57:06.197Z,79.38
2023-03-12T11:58:06.202Z,79.48
2023-03-12T11:59:06.170Z,79.03
2023-03-12T12:00:06.193Z,78.52
2023-03-12T12:01:06.152Z,78.49
2023-03-12T12:02:06.260Z,78.38
2023-03-12T12:03:06.258Z,78.24
2023-03-12T12:04:06.123Z,77.73
2023-03-12T12:05:06.128Z,77.39
2023-03-12T12:06:06.119Z,77.39
2023-03-12T12:07:06.072Z,77.19
2023-03-12T12:08:06.117Z,77.08
2023-03-12T12:09:06.115Z,76.88
2023-03-12T12:10:06.079Z,77.19
2023-03-12T12:11:06.128Z,77.59
2023-03-12T12:12:06.014Z,78.00
2023-03-12T12:13:06.019Z,77.45
2023-03-12T12:14:05.987Z,77.04
2023-03-12T12:15:06.033Z,77.29
2023-03-12T12:16:06.013Z,77.70
2023-03-12T12:17:05.990Z,77.59
2023-03-12T12:18:05.972Z,77.90
2023-03-12T12:19:05.991Z,78.00
2023-03-12T12:20:05.904Z,78.00
2023-03-12T12:21:05.953Z,77.80
2023-03-12T12:22:05.935Z,78.00
2023-03-12T12:23:05.886Z,77.86
2023-03-12T12:24:05.919Z,77.56
2023-03-12T12:25:05.846Z,77.15
2023-03-12T12:26:05.799Z,77.45
2023-03-12T12:27:05.841Z,77.59
2023-03-12T12:28:05.787Z,77.80
2023-03-12T12:29:05.793Z,77.73
2023-03-12T12:30:05.979Z,77.83
2023-03-12T12:31:05.821Z,78.14
2023-03-12T12:32:05.782Z,78.14
2023-03-12T12:33:05.871Z,78.14
2023-03-12T12:34:05.707Z,78.34
2023-03-12T12:35:05.784Z,78.04
2023-03-12T12:36:05.969Z,77.80
2023-03-12T12:37:05.729Z,77.66
2023-03-12T12:38:05.658Z,77.25
2023-03-12T12:39:05.833Z,77.25
2023-03-12T12:40:05.696Z,76.90
2023-03-12T12:41:05.657Z,76.70
2023-03-12T12:42:05.781Z,76.50
2023-03-12T12:43:05.671Z,76.09
2023-03-12T12:44:05.646Z,76.09
2023-03-12T12:45:06.007Z,76.50
2023-03-12T12:46:05.561Z,76.19
2023-03-12T12:47:05.660Z,76.50
2023-03-12T12:48:30.637Z,76.29
2023-03-12T12:49:05.488Z,76.40
2023-03-12T12:50:05.553Z,76.26
2023-03-12T12:51:08.641Z,76.67
2023-03-12T12:52:05.544Z,76.36
2023-03-12T12:53:05.493Z,76.40